Главная страница
METAR-TAF:

METAR-TAF

Аэропорты :

Каракас, Венесуэла

широта: 10-36N, долгота: 066-59W, высота над уровнем моря: 43 м

Текущие метеонаблюдения

Эта сводка был подготовлена 59 минут назад, в 07:00 UTC
Ветер 2 Узел от северный
Температура 23°C
Влажность 83%
Давление 1012 hPa
Видимость: 7000 м
Отдельные облака на высоте 1600 фута
небольшой морось

METAR: SVMI 140700Z 36002KT 7000 -DZ SCT016 23/20 Q1012

Время: 03:59 (07:59 UTC)

Прогноз

Эта сводка был подготовлена 3 часа и 59 минут назад, в 04:00 UTC
Прогноз действительный с 14-го 06 UTC до 15-го 06 UTC
Ветер 10 Узел от западный
Видимость 10 км и более
небольшая облачность на высоте 1600 фута
Отдельные облака на высоте 7000 фута
изменения
С 14-го 08 UTC до 14-го 12 UTC
Отдельные облака на высоте 1600 фута

TAF: SVMI 140400Z 1406/1506 27010KT 9999 FEW016 SCT070 TX33/18Z TN22/08Z BECMG 1408/1412 SCT016

Метеонаблюдения и прогнозы для более 4000 аэропортов (сводки METAR и TAF).

Имеющиеся станции представлены на карте желтыми и красными точками.

Чтобы увидеть название станции, наведите на нее мышь.

Затем щелкните, чтобы увидеть метеонаблюдения и метеопрогнозы.

Управление картой: чтобы увеличить масштаб, щелкните зеленые кнопки с черным крестиком; чтобы уменьшить масштаб, щелкните зеленую кнопку с тире; для просмотра соседних карт щелкайте зеленые стрелки.


METAR-TAF: